createdAt,value
2022-10-05T00:03:39.381Z,0.90
2022-10-05T00:07:42.161Z,0.90
2022-10-05T00:11:46.678Z,0.90
2022-10-05T00:15:51.669Z,0.70
2022-10-05T00:19:58.182Z,0.70
2022-10-05T00:24:03.062Z,0.60
2022-10-05T00:28:18.608Z,0.80
2022-10-05T00:32:23.003Z,0.83
2022-10-05T00:36:26.518Z,0.60
2022-10-05T00:40:50.544Z,0.60
2022-10-05T00:45:16.328Z,0.80
2022-10-05T00:49:27.547Z,0.77
2022-10-05T00:53:41.181Z,0.70
2022-10-05T00:58:18.471Z,0.80
2022-10-05T01:02:45.248Z,0.80
2022-10-05T01:07:16.604Z,0.70
2022-10-05T01:11:47.431Z,0.63
2022-10-05T01:16:15.513Z,0.80
2022-10-05T01:20:37.092Z,0.70
2022-10-05T01:24:50.198Z,1.13
2022-10-05T01:29:03.127Z,1.17
2022-10-05T01:33:38.720Z,0.80
2022-10-05T01:37:54.653Z,0.80
2022-10-05T01:42:18.998Z,0.80
2022-10-05T01:46:47.156Z,0.73
2022-10-05T01:51:06.190Z,0.70
2022-10-05T01:55:20.957Z,0.60
2022-10-05T02:00:02.066Z,0.73
2022-10-05T02:04:56.572Z,0.93
2022-10-05T02:08:57.541Z,0.60
2022-10-05T02:13:13.780Z,0.80
2022-10-05T02:17:32.312Z,0.70
2022-10-05T02:21:36.693Z,0.80
2022-10-05T02:25:47.307Z,0.60
2022-10-05T02:29:52.681Z,0.80
2022-10-05T02:34:26.242Z,0.60
2022-10-05T02:39:01.730Z,0.80
2022-10-05T02:43:29.269Z,0.70
2022-10-05T02:48:07.502Z,1.17
2022-10-05T02:52:35.402Z,0.90
2022-10-05T02:57:23.586Z,0.90
2022-10-05T03:01:52.121Z,0.80
2022-10-05T03:06:23.178Z,0.77
2022-10-05T03:10:48.510Z,0.80
2022-10-05T03:15:24.746Z,1.10
2022-10-05T03:19:49.426Z,0.90
2022-10-05T03:24:26.394Z,0.80
2022-10-05T03:28:54.826Z,0.70
2022-10-05T03:33:24.040Z,0.60
2022-10-05T03:37:40.452Z,0.73
2022-10-05T03:41:52.853Z,0.50
2022-10-05T03:46:26.506Z,0.70
2022-10-05T03:50:51.774Z,0.70
2022-10-05T03:55:04.237Z,1.07
2022-10-05T03:59:20.139Z,0.70
2022-10-05T04:03:35.423Z,0.57
2022-10-05T04:08:01.250Z,0.40
2022-10-05T04:12:26.823Z,0.50
2022-10-05T04:16:40.430Z,0.50
2022-10-05T04:20:52.713Z,0.50
2022-10-05T04:25:06.986Z,0.50
2022-10-05T04:29:23.511Z,0.93
2022-10-05T04:33:31.250Z,0.47
2022-10-05T04:37:56.504Z,0.50
2022-10-05T04:42:11.159Z,0.50
2022-10-05T04:46:44.642Z,0.43
2022-10-05T04:51:23.117Z,0.50
2022-10-05T04:55:36.212Z,0.40
2022-10-05T05:00:05.743Z,0.50
2022-10-05T05:04:56.463Z,0.40
2022-10-05T05:09:39.765Z,0.57
2022-10-05T05:13:59.666Z,0.40
2022-10-05T05:18:06.387Z,1.50
2022-10-05T05:22:33.507Z,0.70
2022-10-05T05:26:58.608Z,0.50
2022-10-05T05:31:18.436Z,0.50
2022-10-05T05:35:32.669Z,0.50
2022-10-05T05:40:04.520Z,0.40
2022-10-05T05:44:38.427Z,0.40
2022-10-05T05:48:47.632Z,0.40
2022-10-05T05:53:19.537Z,0.50
2022-10-05T05:57:36.840Z,0.47
2022-10-05T06:01:44.354Z,0.40
2022-10-05T06:06:06.305Z,0.57
2022-10-05T06:10:55.113Z,0.50
2022-10-05T06:15:36.442Z,0.50
2022-10-05T06:19:41.735Z,0.53
2022-10-05T06:23:55.876Z,0.47
2022-10-05T06:28:01.944Z,0.50
2022-10-05T06:32:28.758Z,0.60
2022-10-05T06:36:45.923Z,0.50
2022-10-05T06:41:07.108Z,0.77
2022-10-05T06:45:45.527Z,0.50
2022-10-05T06:50:30.206Z,0.60
2022-10-05T06:55:14.088Z,0.50
2022-10-05T06:59:47.573Z,0.70
2022-10-05T07:04:15.452Z,0.70
2022-10-05T07:08:29.394Z,0.40
2022-10-05T07:12:38.282Z,0.60
2022-10-05T07:16:52.386Z,0.50
2022-10-05T07:21:16.087Z,0.60
2022-10-05T07:25:36.130Z,0.50
2022-10-05T07:29:56.504Z,0.60
2022-10-05T07:34:06.985Z,0.70
2022-10-05T07:38:35.474Z,0.83
2022-10-05T07:42:53.370Z,0.50
2022-10-05T07:47:01.447Z,0.70
2022-10-05T07:51:28.862Z,0.60
2022-10-05T07:55:51.053Z,0.50
2022-10-05T08:00:14.110Z,0.57
2022-10-05T08:04:23.490Z,0.60
2022-10-05T08:09:02.763Z,0.50
2022-10-05T08:13:20.264Z,0.70
2022-10-05T08:17:34.271Z,0.53
2022-10-05T08:21:41.919Z,0.80
2022-10-05T08:25:55.274Z,0.60
2022-10-05T08:30:06.486Z,0.73
2022-10-05T08:34:27.549Z,0.60
2022-10-05T08:38:34.541Z,0.90
2022-10-05T08:43:05.623Z,0.60
2022-10-05T08:47:59.269Z,0.60
2022-10-05T08:52:20.466Z,0.60
2022-10-05T08:56:50.330Z,0.63
2022-10-05T09:01:19.132Z,0.60
2022-10-05T09:05:43.398Z,0.60
2022-10-05T09:10:22.900Z,0.67
2022-10-05T09:14:37.486Z,0.60
2022-10-05T09:19:09.147Z,0.70
2022-10-05T09:23:38.466Z,0.70
2022-10-05T09:27:49.676Z,0.60
2022-10-05T09:32:12.934Z,0.60
2022-10-05T09:36:56.431Z,0.47
2022-10-05T09:41:17.288Z,0.67
2022-10-05T09:45:29.049Z,0.90
2022-10-05T09:50:03.440Z,0.70
2022-10-05T09:54:36.995Z,0.90
2022-10-05T09:59:09.837Z,0.70
2022-10-05T10:04:08.240Z,0.50
2022-10-05T10:08:32.582Z,0.80
2022-10-05T10:12:50.009Z,0.70
2022-10-05T10:17:13.877Z,0.60
2022-10-05T10:21:33.282Z,0.60
2022-10-05T10:25:38.562Z,0.70
2022-10-05T10:30:03.942Z,0.77
2022-10-05T10:34:40.559Z,0.70
2022-10-05T10:38:54.359Z,0.70
2022-10-05T10:42:57.925Z,0.57
2022-10-05T10:47:18.120Z,0.70
2022-10-05T10:51:58.321Z,0.60
2022-10-05T10:56:33.929Z,0.70
2022-10-05T11:00:58.297Z,0.60
2022-10-05T11:05:23.876Z,0.60
2022-10-05T11:09:35.484Z,0.90
2022-10-05T11:13:46.620Z,0.70
2022-10-05T11:18:00.302Z,0.53
2022-10-05T11:22:40.479Z,0.50
2022-10-05T11:27:17.965Z,0.80
2022-10-05T11:31:33.027Z,0.70
2022-10-05T11:36:03.520Z,0.60
2022-10-05T11:40:26.719Z,0.60
2022-10-05T11:45:02.148Z,0.63
2022-10-05T11:49:26.735Z,0.53
2022-10-05T11:53:39.477Z,0.70
2022-10-05T11:57:59.114Z,0.50
2022-10-05T12:02:40.051Z,0.67
2022-10-05T12:07:05.658Z,0.53
2022-10-05T12:11:36.278Z,0.60
2022-10-05T12:15:53.779Z,0.83
2022-10-05T12:20:14.832Z,0.60
2022-10-05T12:24:27.078Z,0.87
2022-10-05T12:28:43.564Z,0.70
2022-10-05T12:33:02.378Z,0.70
2022-10-05T12:37:43.634Z,0.67
2022-10-05T12:42:12.296Z,0.70
2022-10-05T12:46:46.532Z,1.10
2022-10-05T12:50:57.903Z,0.67
2022-10-05T12:55:12.060Z,0.70
2022-10-05T12:59:27.818Z,0.90
2022-10-05T13:04:25.529Z,0.80
2022-10-05T13:08:45.624Z,0.63
2022-10-05T13:12:51.181Z,0.70
2022-10-05T13:17:02.032Z,0.90
2022-10-05T13:21:20.461Z,0.70
2022-10-05T13:25:32.347Z,0.77
2022-10-05T13:29:54.644Z,0.90
2022-10-05T13:34:08.817Z,0.83
2022-10-05T13:38:36.421Z,0.80
2022-10-05T13:43:06.831Z,1.03
2022-10-05T13:47:21.030Z,0.90
2022-10-05T13:51:28.374Z,1.03
2022-10-05T13:55:36.317Z,1.10
2022-10-05T13:59:53.451Z,0.83
2022-10-05T14:04:32.915Z,1.27
2022-10-05T14:08:46.379Z,1.03
2022-10-05T14:12:54.314Z,1.30
2022-10-05T14:16:59.558Z,1.13
2022-10-05T14:21:07.876Z,1.10
2022-10-05T14:25:09.841Z,0.97
2022-10-05T14:29:14.931Z,1.40
2022-10-05T14:33:17.993Z,1.07
2022-10-05T14:37:24.965Z,1.60
2022-10-05T14:41:32.450Z,1.03
2022-10-05T14:45:35.850Z,1.37
2022-10-05T14:50:10.930Z,1.33
2022-10-05T14:54:31.693Z,1.43
2022-10-05T14:58:57.016Z,1.40
2022-10-05T15:03:18.787Z,1.50
2022-10-05T15:07:25.196Z,1.30
2022-10-05T15:11:40.934Z,1.60
2022-10-05T15:15:51.324Z,1.63
2022-10-05T15:20:24.576Z,1.53
2022-10-05T15:24:45.448Z,1.73
2022-10-05T15:29:01.411Z,1.47
2022-10-05T15:33:20.689Z,1.93
2022-10-05T15:37:27.843Z,2.53
2022-10-05T15:41:47.878Z,1.67
2022-10-05T15:45:57.366Z,1.80
2022-10-05T15:50:22.508Z,1.80
2022-10-05T15:54:57.390Z,1.77
2022-10-05T15:59:13.109Z,1.50
2022-10-05T16:03:45.837Z,2.03
2022-10-05T16:08:10.783Z,2.00
2022-10-05T16:12:25.601Z,2.10
2022-10-05T16:16:44.628Z,2.10
2022-10-05T16:20:57.253Z,2.00
2022-10-05T16:25:09.677Z,3.17
2022-10-05T16:29:33.251Z,2.80
2022-10-05T16:34:03.286Z,2.93
2022-10-05T16:38:32.933Z,3.97
2022-10-05T16:42:54.626Z,3.43
2022-10-05T16:47:27.858Z,3.13
2022-10-05T16:51:56.516Z,3.67
2022-10-05T16:56:04.382Z,3.47
2022-10-05T17:00:28.510Z,2.20
2022-10-05T17:04:49.742Z,2.33
2022-10-05T17:09:08.102Z,2.87
2022-10-05T17:13:22.374Z,3.23
2022-10-05T17:17:38.667Z,2.90
2022-10-05T17:22:01.179Z,3.30
2022-10-05T17:26:21.642Z,2.50
2022-10-05T17:30:31.854Z,2.80
2022-10-05T17:34:36.606Z,2.80
2022-10-05T17:38:50.968Z,2.80
2022-10-05T17:43:15.544Z,2.70
2022-10-05T17:47:56.587Z,2.77
2022-10-05T17:52:19.292Z,2.67
2022-10-05T17:56:22.901Z,2.90
2022-10-05T18:00:35.466Z,2.63
2022-10-05T18:04:42.571Z,3.30
2022-10-05T18:08:47.569Z,3.13
2022-10-05T18:13:11.143Z,2.77
2022-10-05T18:17:13.908Z,3.30
2022-10-05T18:21:25.258Z,3.00
2022-10-05T18:25:45.115Z,2.63
2022-10-05T18:30:10.552Z,2.20
2022-10-05T18:34:18.437Z,3.03
2022-10-05T18:38:48.469Z,4.57
2022-10-05T18:43:24.303Z,3.17
2022-10-05T18:47:45.447Z,2.90
2022-10-05T18:51:51.974Z,2.17
2022-10-05T18:56:14.491Z,1.57
2022-10-05T19:00:23.337Z,1.00
2022-10-05T19:04:37.660Z,1.00
2022-10-05T19:09:08.491Z,0.93
2022-10-05T19:13:29.551Z,0.90
2022-10-05T19:17:54.891Z,0.90
2022-10-05T19:22:33.785Z,0.60
2022-10-05T19:26:54.544Z,0.80
2022-10-05T19:31:06.078Z,0.80
2022-10-05T19:35:17.541Z,0.70
2022-10-05T19:39:41.511Z,0.60
2022-10-05T19:44:02.366Z,0.50
2022-10-05T19:48:27.255Z,0.40
2022-10-05T19:52:49.102Z,0.37
2022-10-05T19:56:54.450Z,0.50
2022-10-05T20:01:05.542Z,0.50
2022-10-05T20:05:08.038Z,0.50
2022-10-05T20:09:22.047Z,0.40
2022-10-05T20:13:24.112Z,0.50
2022-10-05T20:17:48.386Z,0.50
2022-10-05T20:22:00.234Z,0.40
2022-10-05T20:26:20.864Z,0.27
2022-10-05T20:30:34.218Z,0.30
2022-10-05T20:34:38.354Z,0.40
2022-10-05T20:38:41.411Z,0.27
2022-10-05T20:42:44.360Z,0.30
2022-10-05T20:46:47.015Z,0.20
2022-10-05T20:50:51.702Z,0.20
2022-10-05T20:54:58.427Z,0.30
2022-10-05T20:59:01.923Z,0.30
2022-10-05T21:03:04.187Z,0.20
2022-10-05T21:07:06.482Z,0.30
2022-10-05T21:11:11.504Z,0.30
2022-10-05T21:15:13.485Z,0.30
2022-10-05T21:19:16.439Z,0.47
2022-10-05T21:23:19.856Z,0.40
2022-10-05T21:27:22.239Z,0.20
2022-10-05T21:31:25.192Z,0.20
2022-10-05T21:35:27.425Z,0.20
2022-10-05T21:39:30.088Z,0.17
2022-10-05T21:43:33.699Z,0.20
2022-10-05T21:47:36.095Z,0.30
2022-10-05T21:51:39.496Z,0.30
2022-10-05T21:55:45.916Z,0.30
2022-10-05T21:59:48.208Z,0.20
2022-10-05T22:03:52.043Z,0.30
2022-10-05T22:07:54.161Z,0.20
2022-10-05T22:11:57.825Z,0.30
2022-10-05T22:16:00.566Z,0.30
2022-10-05T22:20:03.009Z,0.20
2022-10-05T22:24:05.589Z,0.40
2022-10-05T22:28:12.415Z,0.40
2022-10-05T22:32:15.250Z,0.40
2022-10-05T22:36:17.828Z,0.30
2022-10-05T22:40:19.977Z,0.30
2022-10-05T22:44:23.989Z,0.40
2022-10-05T22:48:27.537Z,0.30
2022-10-05T22:52:30.344Z,0.50
2022-10-05T22:56:34.119Z,0.30
2022-10-05T23:00:57.182Z,0.40
2022-10-05T23:04:59.823Z,0.40
2022-10-05T23:09:02.384Z,0.30
2022-10-05T23:13:06.531Z,0.40
2022-10-05T23:17:08.803Z,0.33
2022-10-05T23:21:12.434Z,0.40
2022-10-05T23:25:17.393Z,0.33
2022-10-05T23:29:20.556Z,0.30
2022-10-05T23:33:23.463Z,0.40
2022-10-05T23:37:28.176Z,0.30
2022-10-05T23:41:31.004Z,0.40
2022-10-05T23:45:34.727Z,0.30
2022-10-05T23:49:40.428Z,0.30
2022-10-05T23:53:43.876Z,0.33
2022-10-05T23:57:45.780Z,0.23
